createdAt,value
2022-10-10T00:01:32.018Z,8.20
2022-10-10T00:04:00.550Z,8.10
2022-10-10T00:06:31.893Z,8.10
2022-10-10T00:09:00.892Z,8.10
2022-10-10T00:11:27.912Z,8.10
2022-10-10T00:13:54.794Z,8.10
2022-10-10T00:16:22.052Z,8.00
2022-10-10T00:18:49.318Z,8.00
2022-10-10T00:21:16.368Z,8.00
2022-10-10T00:23:43.862Z,8.00
2022-10-10T00:26:14.959Z,7.90
2022-10-10T00:28:45.453Z,7.90
2022-10-10T00:31:12.331Z,7.90
2022-10-10T00:33:39.340Z,7.90
2022-10-10T00:36:07.628Z,7.90
2022-10-10T00:38:35.317Z,7.80
2022-10-10T00:41:04.044Z,7.80
2022-10-10T00:43:33.285Z,7.80
2022-10-10T00:46:00.304Z,7.80
2022-10-10T00:48:44.408Z,7.80
2022-10-10T00:51:18.799Z,7.80
2022-10-10T00:54:13.775Z,7.70
2022-10-10T00:56:55.260Z,7.70
2022-10-10T00:59:23.962Z,7.70
2022-10-10T01:01:51.184Z,7.70
2022-10-10T01:04:42.947Z,7.60
2022-10-10T01:07:18.607Z,7.60
2022-10-10T01:09:47.879Z,7.60
2022-10-10T01:12:58.591Z,7.60
2022-10-10T01:15:54.954Z,7.60
2022-10-10T01:18:44.567Z,7.50
2022-10-10T01:22:06.038Z,7.50
2022-10-10T01:25:17.120Z,7.50
2022-10-10T01:27:54.235Z,7.50
2022-10-10T01:30:24.373Z,7.50
2022-10-10T01:33:14.549Z,7.40
2022-10-10T01:36:15.489Z,7.40
2022-10-10T01:38:59.732Z,7.40
2022-10-10T01:41:36.593Z,7.40
2022-10-10T01:44:03.432Z,7.40
2022-10-10T01:46:32.670Z,7.30
2022-10-10T01:49:01.141Z,7.30
2022-10-10T01:51:47.522Z,7.50
2022-10-10T01:54:52.294Z,7.40
2022-10-10T01:57:31.586Z,7.40
2022-10-10T02:00:11.236Z,7.40
2022-10-10T02:02:50.087Z,7.30
2022-10-10T02:05:48.508Z,7.30
2022-10-10T02:08:27.995Z,7.30
2022-10-10T02:11:01.973Z,7.30
2022-10-10T02:13:42.545Z,7.20
2022-10-10T02:16:17.217Z,7.20
2022-10-10T02:18:47.221Z,7.20
2022-10-10T02:21:16.461Z,7.20
2022-10-10T02:23:48.134Z,7.20
2022-10-10T02:26:18.733Z,7.20
2022-10-10T02:28:55.946Z,7.10
2022-10-10T02:31:41.398Z,7.10
2022-10-10T02:34:21.239Z,7.10
2022-10-10T02:36:54.979Z,7.10
2022-10-10T02:39:27.926Z,7.10
2022-10-10T02:41:55.486Z,7.10
2022-10-10T02:44:24.542Z,7.10
2022-10-10T02:46:51.539Z,7.10
2022-10-10T02:49:30.341Z,7.00
2022-10-10T02:51:57.528Z,7.00
2022-10-10T02:54:26.559Z,7.00
2022-10-10T02:56:54.016Z,7.00
2022-10-10T02:59:20.935Z,7.00
2022-10-10T03:01:47.893Z,7.00
2022-10-10T03:04:14.975Z,7.00
2022-10-10T03:06:41.861Z,6.90
2022-10-10T03:09:09.136Z,6.90
2022-10-10T03:11:36.062Z,6.90
2022-10-10T03:14:03.034Z,6.90
2022-10-10T03:16:29.931Z,6.90
2022-10-10T03:18:56.876Z,6.90
2022-10-10T03:21:23.840Z,6.80
2022-10-10T03:23:50.706Z,6.80
2022-10-10T03:26:17.692Z,6.80
2022-10-10T03:28:44.728Z,6.80
2022-10-10T03:31:11.794Z,6.70
2022-10-10T03:33:38.693Z,6.80
2022-10-10T03:36:05.899Z,6.70
2022-10-10T03:38:33.431Z,6.70
2022-10-10T03:41:00.415Z,6.70
2022-10-10T03:43:27.253Z,6.70
2022-10-10T03:45:54.077Z,6.70
2022-10-10T03:48:21.192Z,6.70
2022-10-10T03:50:48.066Z,6.70
2022-10-10T03:53:14.911Z,6.60
2022-10-10T03:55:43.023Z,6.60
2022-10-10T03:58:11.383Z,6.60
2022-10-10T04:00:39.128Z,6.60
2022-10-10T04:03:06.848Z,6.60
2022-10-10T04:05:39.222Z,6.50
2022-10-10T04:08:06.755Z,6.50
2022-10-10T04:10:33.738Z,6.50
2022-10-10T04:13:00.588Z,6.50
2022-10-10T04:15:27.993Z,6.50
2022-10-10T04:17:55.588Z,6.50
2022-10-10T04:20:22.475Z,6.40
2022-10-10T04:22:49.593Z,6.40
2022-10-10T04:25:16.916Z,6.40
2022-10-10T04:27:44.150Z,6.40
2022-10-10T04:30:12.215Z,6.40
2022-10-10T04:32:39.357Z,6.40
2022-10-10T04:35:06.794Z,6.40
2022-10-10T04:37:34.819Z,6.30
2022-10-10T04:40:01.688Z,6.30
2022-10-10T04:42:28.516Z,6.30
2022-10-10T04:44:55.332Z,6.30
2022-10-10T04:47:22.894Z,6.30
2022-10-10T04:49:49.819Z,6.30
2022-10-10T04:52:16.680Z,6.30
2022-10-10T04:54:43.569Z,6.20
2022-10-10T04:57:10.508Z,6.20
2022-10-10T04:59:37.422Z,6.20
2022-10-10T05:02:04.493Z,6.20
2022-10-10T05:04:31.401Z,6.20
2022-10-10T05:06:58.357Z,6.20
2022-10-10T05:09:25.689Z,6.20
2022-10-10T05:11:53.424Z,6.20
2022-10-10T05:14:20.279Z,6.20
2022-10-10T05:16:47.173Z,6.10
2022-10-10T05:19:14.265Z,6.10
2022-10-10T05:21:41.137Z,6.10
2022-10-10T05:24:07.928Z,6.10
2022-10-10T05:26:36.059Z,6.10
2022-10-10T05:29:05.827Z,6.10
2022-10-10T05:31:33.714Z,6.10
2022-10-10T05:34:00.862Z,6.10
2022-10-10T05:36:27.769Z,6.10
2022-10-10T05:38:54.698Z,6.10
2022-10-10T05:41:21.587Z,6.10
2022-10-10T05:43:48.423Z,6.00
2022-10-10T05:46:15.694Z,6.00
2022-10-10T05:48:42.541Z,6.00
2022-10-10T05:51:09.402Z,6.00
2022-10-10T05:53:36.258Z,6.00
2022-10-10T05:56:03.144Z,6.00
2022-10-10T05:58:30.704Z,6.00
2022-10-10T06:01:04.924Z,6.00
2022-10-10T06:03:32.179Z,6.00
2022-10-10T06:05:59.798Z,6.00
2022-10-10T06:08:26.819Z,6.00
2022-10-10T06:10:54.317Z,6.00
2022-10-10T06:13:24.362Z,6.00
2022-10-10T06:15:52.522Z,6.00
2022-10-10T06:18:19.335Z,6.00
2022-10-10T06:20:46.494Z,6.00
2022-10-10T06:23:13.703Z,6.00
2022-10-10T06:25:41.753Z,6.10
2022-10-10T06:28:11.102Z,6.10
2022-10-10T06:30:44.073Z,6.10
2022-10-10T06:33:12.798Z,6.20
2022-10-10T06:35:42.938Z,6.20
2022-10-10T06:38:10.677Z,6.20
2022-10-10T06:40:37.739Z,6.30
2022-10-10T06:43:07.080Z,6.30
2022-10-10T06:45:37.361Z,6.40
2022-10-10T06:48:04.605Z,6.40
2022-10-10T06:50:31.513Z,6.50
2022-10-10T06:52:59.649Z,6.50
2022-10-10T06:55:26.767Z,6.60
2022-10-10T06:57:54.355Z,6.70
2022-10-10T07:00:21.427Z,6.70
2022-10-10T07:02:48.613Z,6.80
2022-10-10T07:05:18.372Z,6.90
2022-10-10T07:07:45.706Z,7.00
2022-10-10T07:10:15.585Z,7.00
2022-10-10T07:12:45.071Z,7.10
2022-10-10T07:15:12.751Z,7.20
2022-10-10T07:17:39.973Z,7.30
2022-10-10T07:20:07.495Z,7.40
2022-10-10T07:22:34.372Z,7.50
2022-10-10T07:25:01.290Z,7.60
2022-10-10T07:27:28.122Z,7.70
2022-10-10T07:29:55.676Z,7.80
2022-10-10T07:32:22.515Z,7.90
2022-10-10T07:34:50.793Z,8.00
2022-10-10T07:37:17.738Z,8.10
2022-10-10T07:39:44.732Z,8.20
2022-10-10T07:42:11.602Z,8.40
2022-10-10T07:44:38.481Z,8.50
2022-10-10T07:47:05.545Z,8.60
2022-10-10T07:49:32.626Z,8.80
2022-10-10T07:52:01.668Z,8.90
2022-10-10T07:54:30.093Z,9.10
2022-10-10T07:56:57.779Z,9.20
2022-10-10T07:59:25.133Z,9.40
2022-10-10T08:01:52.813Z,9.50
2022-10-10T08:04:20.381Z,9.70
2022-10-10T08:06:48.590Z,9.80
2022-10-10T08:09:15.554Z,10.00
2022-10-10T08:11:42.714Z,10.10
2022-10-10T08:14:10.010Z,10.30
2022-10-10T08:16:37.022Z,10.50
2022-10-10T08:19:04.498Z,10.70
2022-10-10T08:21:31.472Z,10.90
2022-10-10T08:23:58.277Z,11.10
2022-10-10T08:26:25.526Z,11.30
2022-10-10T08:28:52.435Z,11.50
2022-10-10T08:31:21.765Z,11.70
2022-10-10T08:33:51.255Z,11.90
2022-10-10T08:36:22.698Z,12.10
2022-10-10T08:38:52.479Z,12.40
2022-10-10T08:41:39.652Z,12.60
2022-10-10T08:44:27.939Z,12.80
2022-10-10T08:47:09.311Z,13.00
2022-10-10T08:49:57.258Z,13.30
2022-10-10T08:53:21.811Z,13.50
2022-10-10T08:55:49.598Z,13.70
2022-10-10T08:58:24.385Z,13.90
2022-10-10T09:01:25.088Z,14.20
2022-10-10T09:04:02.043Z,14.40
2022-10-10T09:07:24.987Z,14.60
2022-10-10T09:10:18.480Z,14.80
2022-10-10T09:13:26.977Z,15.00
2022-10-10T09:16:30.412Z,15.30
2022-10-10T09:19:35.360Z,15.40
2022-10-10T09:22:11.235Z,15.60
2022-10-10T09:24:57.279Z,15.70
2022-10-10T09:27:34.798Z,15.90
2022-10-10T09:30:18.816Z,16.00
2022-10-10T09:33:09.342Z,16.20
2022-10-10T09:35:41.483Z,16.40
2022-10-10T09:38:33.299Z,16.60
2022-10-10T09:41:15.003Z,16.70
2022-10-10T09:43:43.086Z,16.90
2022-10-10T09:46:10.170Z,17.00
2022-10-10T09:48:40.444Z,17.10
2022-10-10T09:51:14.466Z,17.20
2022-10-10T09:53:43.229Z,17.30
2022-10-10T09:56:37.117Z,17.40
2022-10-10T09:59:04.380Z,17.50
2022-10-10T10:01:35.019Z,17.60
2022-10-10T10:04:27.819Z,17.70
2022-10-10T10:07:34.051Z,17.80
2022-10-10T10:10:16.572Z,17.90
2022-10-10T10:12:45.466Z,18.00
2022-10-10T10:15:38.611Z,18.10
2022-10-10T10:18:19.299Z,18.20
2022-10-10T10:20:51.192Z,18.30
2022-10-10T10:23:34.702Z,18.40
2022-10-10T10:26:06.408Z,18.50
2022-10-10T10:28:41.627Z,18.60
2022-10-10T10:31:50.392Z,18.70
2022-10-10T10:34:50.917Z,18.80
2022-10-10T10:37:46.704Z,18.90
2022-10-10T10:40:33.560Z,19.00
2022-10-10T10:43:38.062Z,19.10
2022-10-10T10:46:47.384Z,19.20
2022-10-10T10:49:36.923Z,19.30
2022-10-10T10:52:27.202Z,19.40
2022-10-10T10:55:16.756Z,19.50
2022-10-10T10:58:37.185Z,19.50
2022-10-10T11:01:23.722Z,19.60
2022-10-10T11:05:21.946Z,19.70
2022-10-10T11:07:26.779Z,19.80
2022-10-10T11:10:23.205Z,19.90
2022-10-10T11:13:24.735Z,20.00
2022-10-10T11:16:10.052Z,20.10
2022-10-10T11:19:18.344Z,20.20
2022-10-10T11:21:54.753Z,20.30
2022-10-10T11:24:55.049Z,20.30
2022-10-10T11:27:42.695Z,20.40
2022-10-10T11:30:26.302Z,20.40
2022-10-10T11:33:18.288Z,20.50
2022-10-10T11:36:12.419Z,20.60
2022-10-10T11:39:02.719Z,20.60
2022-10-10T11:41:42.986Z,20.70
2022-10-10T11:44:36.746Z,20.70
2022-10-10T11:47:24.523Z,20.80
2022-10-10T11:50:05.851Z,20.90
2022-10-10T11:53:06.573Z,20.90
2022-10-10T11:55:55.903Z,21.00
2022-10-10T11:58:35.409Z,21.10
2022-10-10T12:01:41.826Z,21.10
2022-10-10T12:04:08.760Z,21.20
2022-10-10T12:06:45.339Z,21.30
2022-10-10T12:09:29.782Z,21.30
2022-10-10T12:12:18.730Z,21.30
2022-10-10T12:14:54.095Z,21.40
2022-10-10T12:17:31.399Z,21.50
2022-10-10T12:20:27.543Z,21.50
2022-10-10T12:23:23.102Z,21.50
2022-10-10T12:25:50.076Z,21.50
2022-10-10T12:28:16.891Z,21.50
2022-10-10T12:30:57.740Z,21.50
2022-10-10T12:33:34.155Z,21.50
2022-10-10T12:36:19.934Z,21.60
2022-10-10T12:39:02.994Z,21.60
2022-10-10T12:41:47.209Z,21.60
2022-10-10T12:44:46.552Z,21.50
2022-10-10T12:47:16.423Z,21.60
2022-10-10T12:49:59.117Z,21.60
2022-10-10T12:53:02.755Z,21.60
2022-10-10T12:55:40.989Z,21.60
2022-10-10T12:58:26.471Z,21.60
2022-10-10T13:00:58.034Z,21.60
2022-10-10T13:03:43.581Z,21.60
2022-10-10T13:06:41.374Z,21.60
2022-10-10T13:09:24.607Z,21.60
2022-10-10T13:12:00.809Z,21.60
2022-10-10T13:14:44.507Z,21.60
2022-10-10T13:17:36.558Z,21.60
2022-10-10T13:20:05.672Z,21.70
2022-10-10T13:22:36.588Z,21.70
2022-10-10T13:25:08.358Z,21.70
2022-10-10T13:27:35.401Z,21.80
2022-10-10T13:30:07.132Z,21.80
2022-10-10T13:32:35.815Z,21.80
2022-10-10T13:35:12.836Z,21.80
2022-10-10T13:37:46.136Z,21.90
2022-10-10T13:40:18.077Z,21.90
2022-10-10T13:42:51.356Z,21.90
2022-10-10T13:45:56.045Z,22.00
2022-10-10T13:48:37.784Z,22.00
2022-10-10T13:51:12.974Z,22.00
2022-10-10T13:53:46.129Z,22.00
2022-10-10T13:56:30.272Z,22.00
2022-10-10T13:59:06.003Z,22.00
2022-10-10T14:01:43.227Z,22.00
2022-10-10T14:04:13.213Z,22.00
2022-10-10T14:06:49.496Z,22.00
2022-10-10T14:09:27.461Z,22.00
2022-10-10T14:11:56.583Z,22.10
2022-10-10T14:14:32.770Z,22.10
2022-10-10T14:17:02.643Z,22.10
2022-10-10T14:19:30.639Z,22.20
2022-10-10T14:21:57.779Z,22.20
2022-10-10T14:24:25.651Z,22.20
2022-10-10T14:26:53.114Z,22.20
2022-10-10T14:29:20.894Z,22.20
2022-10-10T14:31:47.971Z,22.20
2022-10-10T14:34:16.123Z,22.20
2022-10-10T14:36:50.127Z,22.20
2022-10-10T14:39:19.303Z,22.20
2022-10-10T14:41:46.593Z,22.30
2022-10-10T14:44:13.680Z,22.30
2022-10-10T14:46:41.732Z,22.30
2022-10-10T14:49:20.304Z,22.30
2022-10-10T14:51:48.113Z,22.40
2022-10-10T14:54:15.547Z,22.40
2022-10-10T14:57:07.801Z,22.40
2022-10-10T14:59:46.389Z,22.40
2022-10-10T15:02:21.845Z,22.30
2022-10-10T15:04:49.824Z,22.30
2022-10-10T15:07:17.500Z,22.30
2022-10-10T15:10:17.471Z,22.20
2022-10-10T15:12:37.439Z,22.20
2022-10-10T15:15:05.991Z,22.10
2022-10-10T15:17:34.391Z,22.10
2022-10-10T15:20:04.123Z,22.00
2022-10-10T15:22:32.658Z,22.00
2022-10-10T15:24:59.960Z,22.00
2022-10-10T15:27:32.532Z,21.90
2022-10-10T15:30:00.332Z,21.90
2022-10-10T15:32:27.222Z,21.80
2022-10-10T15:34:54.098Z,21.80
2022-10-10T15:37:24.962Z,21.70
2022-10-10T15:39:51.957Z,21.70
2022-10-10T15:42:23.030Z,21.60
2022-10-10T15:44:50.897Z,21.60
2022-10-10T15:47:19.209Z,21.60
2022-10-10T15:49:46.276Z,21.60
2022-10-10T15:52:13.380Z,21.50
2022-10-10T15:54:40.517Z,21.50
2022-10-10T15:57:07.494Z,21.40
2022-10-10T15:59:36.909Z,21.40
2022-10-10T16:02:06.311Z,21.40
2022-10-10T16:04:33.661Z,21.30
2022-10-10T16:09:48.190Z,21.20
2022-10-10T16:12:15.181Z,21.20
2022-10-10T16:14:42.800Z,21.10
2022-10-10T16:17:10.221Z,21.10
2022-10-10T16:19:37.423Z,21.10
2022-10-10T16:22:04.418Z,21.00
2022-10-10T16:24:31.750Z,21.00
2022-10-10T16:26:59.607Z,21.00
2022-10-10T16:29:26.771Z,20.90
2022-10-10T16:31:53.887Z,20.90
2022-10-10T16:34:20.866Z,20.80
2022-10-10T16:36:47.779Z,20.80
2022-10-10T16:39:14.843Z,20.70
2022-10-10T16:41:48.126Z,20.70
2022-10-10T16:44:17.490Z,20.60
2022-10-10T16:46:44.533Z,20.60
2022-10-10T16:49:16.451Z,20.50
2022-10-10T16:51:43.598Z,20.50
2022-10-10T16:54:10.763Z,20.40
2022-10-10T16:56:38.215Z,20.40
2022-10-10T16:59:05.619Z,20.30
2022-10-10T17:01:32.683Z,20.20
2022-10-10T17:04:01.392Z,20.20
2022-10-10T17:06:34.947Z,20.10
2022-10-10T17:09:02.712Z,20.10
2022-10-10T17:11:29.923Z,20.10
2022-10-10T17:13:57.214Z,20.00
2022-10-10T17:17:06.864Z,20.00
2022-10-10T17:19:14.306Z,19.90
2022-10-10T17:21:41.217Z,19.90
2022-10-10T17:24:08.275Z,19.90
2022-10-10T17:26:35.072Z,19.90
2022-10-10T17:29:02.100Z,19.90
2022-10-10T17:31:29.083Z,19.80
2022-10-10T17:33:57.438Z,19.80
2022-10-10T17:36:28.013Z,19.80
2022-10-10T17:38:56.193Z,19.70
2022-10-10T17:41:23.905Z,19.70
2022-10-10T17:43:51.280Z,19.70
2022-10-10T17:46:41.828Z,19.60
2022-10-10T17:49:11.896Z,19.60
2022-10-10T17:51:41.183Z,19.60
2022-10-10T17:54:10.068Z,19.60
2022-10-10T17:56:37.550Z,19.60
2022-10-10T17:59:06.690Z,19.50
2022-10-10T18:01:36.466Z,19.50
2022-10-10T18:04:04.852Z,19.50
2022-10-10T18:06:33.635Z,19.50
2022-10-10T18:09:01.047Z,19.50
2022-10-10T18:11:31.322Z,19.50
2022-10-10T18:14:02.373Z,19.50
2022-10-10T18:16:34.251Z,19.40
2022-10-10T18:19:04.150Z,19.40
2022-10-10T18:21:31.752Z,19.40
2022-10-10T18:23:58.881Z,19.40
2022-10-10T18:26:29.756Z,19.40
2022-10-10T18:28:57.534Z,19.40
2022-10-10T18:31:33.180Z,19.30
2022-10-10T18:34:01.661Z,19.30
2022-10-10T18:36:32.655Z,19.30
2022-10-10T18:39:02.310Z,19.20
2022-10-10T18:41:34.330Z,19.20
2022-10-10T18:44:08.417Z,19.20
2022-10-10T18:46:35.813Z,19.20
2022-10-10T18:49:04.923Z,19.10
2022-10-10T18:51:32.142Z,19.10
2022-10-10T18:54:03.722Z,19.10
2022-10-10T18:56:33.269Z,19.10
2022-10-10T18:59:03.697Z,19.00
2022-10-10T19:01:36.379Z,19.00
2022-10-10T19:04:06.178Z,19.00
2022-10-10T19:06:34.396Z,19.00
2022-10-10T19:09:03.600Z,18.90
2022-10-10T19:11:34.946Z,18.90
2022-10-10T19:14:04.760Z,18.90
2022-10-10T19:16:32.529Z,18.90
2022-10-10T19:19:01.360Z,18.90
2022-10-10T19:21:32.903Z,18.80
2022-10-10T19:24:02.931Z,18.80
2022-10-10T19:26:34.012Z,18.80
2022-10-10T19:29:08.343Z,18.80
2022-10-10T19:31:37.396Z,18.80
2022-10-10T19:34:04.891Z,18.80
2022-10-10T19:36:31.830Z,18.70
2022-10-10T19:39:00.173Z,18.70
2022-10-10T19:41:28.671Z,18.70
2022-10-10T19:43:57.921Z,18.70
2022-10-10T19:46:26.879Z,18.70
2022-10-10T19:49:00.547Z,18.70
2022-10-10T19:51:29.667Z,18.70
2022-10-10T19:53:58.004Z,18.70
2022-10-10T19:56:26.479Z,18.70
2022-10-10T19:58:59.877Z,18.60
2022-10-10T20:01:30.274Z,18.60
2022-10-10T20:03:58.970Z,18.50
2022-10-10T20:06:26.700Z,18.50
2022-10-10T20:08:53.949Z,18.40
2022-10-10T20:11:23.183Z,18.30
2022-10-10T20:13:54.852Z,18.30
2022-10-10T20:16:23.673Z,18.20
2022-10-10T20:18:50.774Z,18.20
2022-10-10T20:21:23.650Z,18.10
2022-10-10T20:23:50.820Z,18.00
2022-10-10T20:26:22.324Z,17.90
2022-10-10T20:28:51.310Z,17.90
2022-10-10T20:31:23.579Z,17.80
2022-10-10T20:33:53.863Z,17.80
2022-10-10T20:36:22.808Z,17.70
2022-10-10T20:38:59.106Z,17.60
2022-10-10T20:41:30.712Z,17.50
2022-10-10T20:44:00.859Z,17.50
2022-10-10T20:46:33.199Z,17.40
2022-10-10T20:49:02.792Z,17.40
2022-10-10T20:51:30.141Z,17.40
2022-10-10T20:54:03.708Z,17.30
2022-10-10T20:56:33.756Z,17.20
2022-10-10T20:59:01.309Z,17.20
2022-10-10T21:01:30.155Z,17.10
2022-10-10T21:03:58.562Z,17.10
2022-10-10T21:06:34.465Z,17.00
2022-10-10T21:09:07.387Z,16.90
2022-10-10T21:11:35.404Z,16.90
2022-10-10T21:14:02.643Z,16.80
2022-10-10T21:16:39.584Z,16.80
2022-10-10T21:19:12.059Z,16.70
2022-10-10T21:21:39.540Z,16.70
2022-10-10T21:24:11.103Z,16.70
2022-10-10T21:26:39.725Z,16.60
2022-10-10T21:29:07.473Z,16.60
2022-10-10T21:31:38.666Z,16.50
2022-10-10T21:34:08.583Z,16.50
2022-10-10T21:36:37.109Z,16.40
2022-10-10T21:39:06.781Z,16.40
2022-10-10T21:41:34.323Z,16.40
2022-10-10T21:44:01.177Z,16.30
2022-10-10T21:46:36.460Z,16.30
2022-10-10T21:49:10.401Z,16.30
2022-10-10T21:51:41.988Z,16.20
2022-10-10T21:54:10.040Z,16.20
2022-10-10T21:56:37.728Z,16.20
2022-10-10T21:59:05.198Z,16.10
2022-10-10T22:01:33.223Z,16.10
2022-10-10T22:04:02.482Z,16.00
2022-10-10T22:06:30.148Z,16.00
2022-10-10T22:08:59.905Z,15.90
2022-10-10T22:11:29.354Z,15.90
2022-10-10T22:13:56.910Z,15.90
2022-10-10T22:16:23.994Z,15.80
2022-10-10T22:18:56.033Z,15.80
2022-10-10T22:21:29.426Z,15.70
2022-10-10T22:24:01.400Z,15.70
2022-10-10T22:26:29.160Z,15.60
2022-10-10T22:28:56.083Z,15.60
2022-10-10T22:31:23.056Z,15.50
2022-10-10T22:33:49.933Z,15.50
2022-10-10T22:36:17.030Z,15.50
2022-10-10T22:38:45.678Z,15.40
2022-10-10T22:41:13.949Z,15.30
2022-10-10T22:43:40.855Z,15.30
2022-10-10T22:46:09.148Z,15.20
2022-10-10T22:48:36.982Z,15.10
2022-10-10T22:51:10.332Z,15.00
2022-10-10T22:53:39.843Z,15.00
2022-10-10T22:56:07.922Z,14.90
2022-10-10T22:58:35.178Z,14.80
2022-10-10T23:01:24.367Z,14.70
2022-10-10T23:03:56.014Z,14.60
2022-10-10T23:06:23.445Z,14.50
2022-10-10T23:08:51.275Z,14.50
2022-10-10T23:11:18.630Z,14.40
2022-10-10T23:13:45.698Z,14.30
2022-10-10T23:16:12.705Z,14.30
2022-10-10T23:18:39.594Z,14.20
2022-10-10T23:21:06.583Z,14.10
2022-10-10T23:23:33.424Z,14.10
2022-10-10T23:26:06.067Z,14.00
2022-10-10T23:28:33.741Z,13.90
2022-10-10T23:31:05.052Z,13.90
2022-10-10T23:33:36.536Z,13.80
2022-10-10T23:36:10.509Z,13.70
2022-10-10T23:38:38.594Z,13.70
2022-10-10T23:41:06.328Z,13.60
2022-10-10T23:43:33.899Z,13.50
2022-10-10T23:46:00.840Z,13.50
2022-10-10T23:48:27.945Z,13.40
2022-10-10T23:50:54.763Z,13.30
2022-10-10T23:53:21.884Z,13.30
2022-10-10T23:55:48.760Z,13.20
2022-10-10T23:58:16.057Z,13.10
